createdAt,value
2023-01-01T00:02:41.363Z,100743.25
2023-01-01T00:06:57.644Z,100748.75
2023-01-01T00:11:14.172Z,100747.88
2023-01-01T00:15:30.370Z,100746.03
2023-01-01T00:19:46.518Z,100733.88
2023-01-01T00:24:02.804Z,100727.44
2023-01-01T00:28:18.951Z,100734.69
2023-01-01T00:32:35.216Z,100721.91
2023-01-01T00:36:51.453Z,100729.00
2023-01-01T00:41:07.636Z,100730.56
2023-01-01T00:45:23.908Z,100735.09
2023-01-01T00:49:40.119Z,100740.56
2023-01-01T00:53:56.302Z,100737.47
2023-01-01T00:58:12.541Z,100728.00
2023-01-01T01:02:31.630Z,100733.09
2023-01-01T01:06:48.008Z,100756.97
2023-01-01T01:11:12.777Z,100754.53
2023-01-01T01:15:28.944Z,100754.75
2023-01-01T01:19:45.101Z,100754.41
2023-01-01T01:24:03.587Z,100754.19
2023-01-01T01:28:19.683Z,100766.16
2023-01-01T01:32:35.838Z,100766.81
2023-01-01T01:36:53.361Z,100760.03
2023-01-01T01:41:25.707Z,100752.03
2023-01-01T01:45:43.305Z,100767.25
2023-01-01T01:50:06.348Z,100761.66
2023-01-01T01:54:24.564Z,100754.22
2023-01-01T01:58:40.845Z,100757.12
2023-01-01T02:03:04.833Z,100756.81
2023-01-01T02:07:22.749Z,100765.34
2023-01-01T02:11:38.927Z,100773.09
2023-01-01T02:16:12.431Z,100770.84
2023-01-01T02:20:47.987Z,100771.72
2023-01-01T02:25:23.937Z,100770.16
2023-01-01T02:29:56.749Z,100767.88
2023-01-01T02:34:15.184Z,100775.97
2023-01-01T02:38:44.142Z,100767.38
2023-01-01T02:43:01.958Z,100762.75
2023-01-01T02:47:20.331Z,100758.81
2023-01-01T02:51:38.422Z,100766.00
2023-01-01T02:56:06.591Z,100753.81
2023-01-01T03:00:29.766Z,100762.59
2023-01-01T03:04:54.239Z,100758.28
2023-01-01T03:10:03.179Z,100763.19
2023-01-01T03:14:46.162Z,100746.72
2023-01-01T03:19:29.400Z,100755.59
2023-01-01T03:23:50.330Z,100760.13
2023-01-01T03:28:11.654Z,100749.37
2023-01-01T03:33:08.211Z,100750.47
2023-01-01T03:37:28.096Z,100740.56
2023-01-01T03:42:08.623Z,100741.75
2023-01-01T03:46:28.485Z,100737.97
2023-01-01T03:51:18.165Z,100736.16
2023-01-01T03:55:43.290Z,100725.66
2023-01-01T04:00:05.227Z,100723.75
2023-01-01T04:04:21.578Z,100717.88
2023-01-01T04:08:38.757Z,100722.94
2023-01-01T04:12:57.167Z,100721.97
2023-01-01T04:17:14.200Z,100703.09
2023-01-01T04:21:30.425Z,100721.37
2023-01-01T04:25:47.494Z,100716.31
2023-01-01T04:30:05.099Z,100724.91
2023-01-01T04:34:21.371Z,100720.62
2023-01-01T04:38:38.437Z,100732.81
2023-01-01T04:42:55.096Z,100729.38
2023-01-01T04:47:11.320Z,100730.75
2023-01-01T04:51:27.500Z,100735.81
2023-01-01T04:55:43.784Z,100735.91
2023-01-01T04:59:59.963Z,100729.69
2023-01-01T05:04:16.904Z,100738.31
2023-01-01T05:08:34.416Z,100726.84
2023-01-01T05:12:50.755Z,100731.81
2023-01-01T05:17:07.067Z,100734.97
2023-01-01T05:21:34.921Z,100727.97
2023-01-01T05:25:51.122Z,100757.69
2023-01-01T05:30:08.037Z,100752.16
2023-01-01T05:38:45.438Z,100752.50
2023-01-01T05:43:04.298Z,100753.28
2023-01-01T05:47:22.543Z,100751.12
2023-01-01T05:55:54.747Z,100778.03
2023-01-01T06:00:13.372Z,100792.72
2023-01-01T06:04:30.742Z,100795.50
2023-01-01T06:09:13.576Z,100793.19
2023-01-01T06:13:30.637Z,100791.00
2023-01-01T06:17:47.306Z,100810.47
2023-01-01T06:22:03.492Z,100816.97
2023-01-01T06:26:24.978Z,100817.94
2023-01-01T06:30:41.252Z,100816.91
2023-01-01T06:34:57.504Z,100819.00
2023-01-01T06:39:13.812Z,100814.25
2023-01-01T06:43:31.934Z,100813.03
2023-01-01T06:47:48.235Z,100812.87
2023-01-01T06:52:04.517Z,100817.44
2023-01-01T06:56:21.770Z,100812.44
2023-01-01T07:00:38.027Z,100808.97
2023-01-01T07:04:54.230Z,100803.84
2023-01-01T07:09:10.580Z,100813.97
2023-01-01T07:13:27.791Z,100810.53
2023-01-01T07:17:43.977Z,100814.19
2023-01-01T07:22:00.358Z,100814.13
2023-01-01T07:26:16.681Z,100834.09
2023-01-01T07:30:32.931Z,100833.78
2023-01-01T07:34:50.918Z,100834.16
2023-01-01T07:39:07.249Z,100846.28
2023-01-01T07:43:23.558Z,100863.25
2023-01-01T07:47:39.983Z,100863.94
2023-01-01T07:51:56.205Z,100863.72
2023-01-01T07:56:12.596Z,100872.09
2023-01-01T08:00:29.317Z,100867.47
2023-01-01T08:04:46.671Z,100868.25
2023-01-01T08:09:02.929Z,100879.12
2023-01-01T08:13:19.228Z,100867.81
2023-01-01T08:17:36.308Z,100871.78
2023-01-01T08:21:54.964Z,100894.47
2023-01-01T08:26:18.935Z,100906.09
2023-01-01T08:30:35.125Z,100895.13
2023-01-01T08:34:51.339Z,100898.53
2023-01-01T08:39:08.318Z,100901.25
2023-01-01T08:43:24.541Z,100898.22
2023-01-01T08:47:40.774Z,100900.88
2023-01-01T08:51:57.022Z,100917.03
2023-01-01T08:56:16.120Z,100928.87
2023-01-01T09:00:32.397Z,100911.44
2023-01-01T09:04:48.782Z,100924.47
2023-01-01T09:09:04.984Z,100919.84
2023-01-01T09:13:23.006Z,100911.06
2023-01-01T09:17:39.181Z,100909.97
2023-01-01T09:21:55.473Z,100914.91
2023-01-01T09:26:11.807Z,100920.03
2023-01-01T09:30:28.339Z,100918.56
2023-01-01T09:34:51.955Z,100923.72
2023-01-01T09:39:13.336Z,100920.31
2023-01-01T09:44:00.417Z,100913.97
2023-01-01T09:48:16.921Z,100907.19
2023-01-01T09:53:03.374Z,100908.50
2023-01-01T09:57:20.558Z,100925.16
2023-01-01T10:01:42.978Z,100915.72
2023-01-01T10:06:02.091Z,100921.37
2023-01-01T10:10:27.350Z,100907.75
2023-01-01T10:14:47.532Z,100916.06
2023-01-01T10:19:36.949Z,100923.53
2023-01-01T10:24:03.908Z,100931.09
2023-01-01T10:28:30.636Z,100910.66
2023-01-01T10:32:50.067Z,100899.22
2023-01-01T10:37:10.859Z,100895.09
2023-01-01T10:41:27.091Z,100891.97
2023-01-01T10:45:48.918Z,100886.09
2023-01-01T10:50:08.067Z,100886.72
2023-01-01T10:54:38.973Z,100866.63
2023-01-01T10:58:57.105Z,100853.44
2023-01-01T11:03:22.901Z,100864.75
2023-01-01T11:07:41.465Z,100851.78
2023-01-01T11:12:15.122Z,100853.09
2023-01-01T11:16:39.403Z,100836.87
2023-01-01T11:20:59.730Z,100823.53
2023-01-01T11:25:20.937Z,100823.50
2023-01-01T11:29:37.161Z,100828.31
2023-01-01T11:33:55.372Z,100840.44
2023-01-01T11:38:29.249Z,100844.56
2023-01-01T11:42:58.542Z,100828.25
2023-01-01T11:47:32.218Z,100822.22
2023-01-01T11:51:48.493Z,100822.19
2023-01-01T11:56:16.458Z,100817.81
2023-01-01T12:00:35.173Z,100819.25
2023-01-01T12:04:57.085Z,100810.22
2023-01-01T12:09:25.395Z,100812.38
2023-01-01T12:14:00.780Z,100819.22
2023-01-01T12:18:17.844Z,100825.97
2023-01-01T12:22:34.195Z,100825.44
2023-01-01T12:27:11.565Z,100796.69
2023-01-01T12:31:57.147Z,100808.62
2023-01-01T12:36:38.408Z,100819.56
2023-01-01T12:41:19.446Z,100810.66
2023-01-01T12:45:57.116Z,100819.78
2023-01-01T12:50:36.323Z,100827.97
2023-01-01T12:55:25.312Z,100825.22
2023-01-01T12:59:47.722Z,100830.56
2023-01-01T13:04:06.965Z,100832.88
2023-01-01T13:08:23.438Z,100823.13
2023-01-01T13:12:39.919Z,100804.91
2023-01-01T13:16:57.507Z,100802.63
2023-01-01T13:21:23.037Z,100799.31
2023-01-01T13:25:39.243Z,100802.56
2023-01-01T13:29:55.496Z,100806.78
2023-01-01T13:34:38.960Z,100808.97
2023-01-01T13:38:59.681Z,100819.75
2023-01-01T13:43:20.231Z,100828.84
2023-01-01T13:48:09.022Z,100831.75
2023-01-01T13:52:49.184Z,100836.59
2023-01-01T13:57:14.507Z,100835.09
2023-01-01T14:01:51.639Z,100849.41
2023-01-01T14:06:17.363Z,100848.22
2023-01-01T14:10:35.492Z,100854.28
2023-01-01T14:14:51.790Z,100851.28
2023-01-01T14:19:14.565Z,100851.19
2023-01-01T14:23:39.448Z,100846.22
2023-01-01T14:27:57.473Z,100850.59
2023-01-01T14:32:16.429Z,100846.66
2023-01-01T14:36:33.057Z,100845.72
2023-01-01T14:40:49.282Z,100838.19
2023-01-01T14:45:08.289Z,100835.53
2023-01-01T14:49:33.931Z,100835.78
2023-01-01T14:53:51.322Z,100834.72
2023-01-01T14:58:11.572Z,100837.78
2023-01-01T15:02:37.479Z,100852.25
2023-01-01T15:07:02.968Z,100863.22
2023-01-01T15:11:24.973Z,100863.13
2023-01-01T15:15:47.474Z,100865.88
2023-01-01T15:20:06.617Z,100854.25
2023-01-01T15:24:26.350Z,100855.69
2023-01-01T15:28:43.279Z,100864.66
2023-01-01T15:33:08.616Z,100880.53
2023-01-01T15:37:33.452Z,100867.25
2023-01-01T15:41:52.052Z,100875.53
2023-01-01T15:46:26.109Z,100886.44
2023-01-01T15:50:51.111Z,100889.28
2023-01-01T15:55:07.690Z,100893.97
2023-01-01T15:59:27.962Z,100898.13
2023-01-01T16:03:45.775Z,100900.50
2023-01-01T16:08:05.559Z,100910.66
2023-01-01T16:12:22.282Z,100910.94
2023-01-01T16:16:39.963Z,100912.47
2023-01-01T16:20:56.659Z,100906.53
2023-01-01T16:25:16.891Z,100917.09
2023-01-01T16:29:33.199Z,100905.13
2023-01-01T16:33:53.494Z,100916.72
2023-01-01T16:38:09.822Z,100916.03
2023-01-01T16:42:26.214Z,100909.72
2023-01-01T16:46:42.832Z,100911.84
2023-01-01T16:50:59.097Z,100920.97
2023-01-01T16:55:15.533Z,100922.41
2023-01-01T16:59:31.818Z,100924.25
2023-01-01T17:03:48.396Z,100929.75
2023-01-01T17:08:04.822Z,100920.03
2023-01-01T17:12:20.993Z,100912.91
2023-01-01T17:16:39.831Z,100923.34
2023-01-01T17:20:56.565Z,100928.78
2023-01-01T17:25:14.040Z,100923.81
2023-01-01T17:29:30.560Z,100928.19
2023-01-01T17:33:47.465Z,100910.88
2023-01-01T17:38:03.685Z,100916.94
2023-01-01T17:42:23.099Z,100917.84
2023-01-01T17:46:40.113Z,100915.94
2023-01-01T17:50:56.941Z,100915.37
2023-01-01T17:55:13.798Z,100921.03
2023-01-01T17:59:45.411Z,100943.25
2023-01-01T18:04:06.805Z,100950.56
2023-01-01T18:08:23.052Z,100954.97
2023-01-01T18:12:39.290Z,100949.50
2023-01-01T18:16:55.548Z,100955.19
2023-01-01T18:21:23.350Z,100951.28
2023-01-01T18:25:39.932Z,100946.25
2023-01-01T18:29:58.366Z,100936.50
2023-01-01T18:34:15.142Z,100937.41
2023-01-01T18:38:31.821Z,100927.41
2023-01-01T18:43:20.328Z,100938.00
2023-01-01T18:47:36.585Z,100941.47
2023-01-01T18:51:57.396Z,100952.84
2023-01-01T18:56:14.945Z,100952.72
2023-01-01T19:00:32.078Z,100952.13
2023-01-01T19:04:49.783Z,100949.41
2023-01-01T19:09:25.633Z,100936.13
2023-01-01T19:13:41.841Z,100938.41
2023-01-01T19:17:58.093Z,100939.06
2023-01-01T19:22:32.918Z,100927.44
2023-01-01T19:26:53.239Z,100921.31
2023-01-01T19:31:09.817Z,100919.16
2023-01-01T19:35:26.172Z,100919.38
2023-01-01T19:39:42.848Z,100924.22
2023-01-01T19:43:59.059Z,100919.28
2023-01-01T19:48:15.475Z,100926.00
2023-01-01T19:52:31.782Z,100920.91
2023-01-01T19:56:48.915Z,100920.78
2023-01-01T20:01:05.346Z,100913.19
2023-01-01T20:05:21.958Z,100908.59
2023-01-01T20:09:38.248Z,100906.03
2023-01-01T20:13:55.041Z,100911.16
2023-01-01T20:18:17.068Z,100925.16
2023-01-01T20:22:33.286Z,100918.53
2023-01-01T20:26:52.484Z,100908.16
2023-01-01T20:31:08.835Z,100904.66
2023-01-01T20:35:50.764Z,100911.63
2023-01-01T20:40:11.139Z,100904.87
2023-01-01T20:44:27.581Z,100905.81
2023-01-01T20:48:43.806Z,100905.03
2023-01-01T20:53:00.099Z,100915.34
2023-01-01T20:57:16.541Z,100911.16
2023-01-01T21:01:33.132Z,100912.75
2023-01-01T21:05:49.471Z,100907.66
2023-01-01T21:10:06.323Z,100896.38
2023-01-01T21:14:25.518Z,100893.25
2023-01-01T21:18:42.064Z,100897.28
2023-01-01T21:22:59.840Z,100901.53
2023-01-01T21:27:24.965Z,100901.59
2023-01-01T21:31:43.093Z,100907.13
2023-01-01T21:36:02.555Z,100900.53
2023-01-01T21:40:39.888Z,100903.69
2023-01-01T21:44:58.012Z,100906.81
2023-01-01T21:49:29.608Z,100905.34
2023-01-01T21:53:45.942Z,100901.16
2023-01-01T21:58:22.936Z,100903.88
2023-01-01T22:02:39.970Z,100904.44
2023-01-01T22:07:01.176Z,100902.78
2023-01-01T22:11:27.134Z,100893.09
2023-01-01T22:15:44.314Z,100891.09
2023-01-01T22:20:23.116Z,100882.66
2023-01-01T22:24:39.383Z,100886.88
2023-01-01T22:29:00.142Z,100875.81
2023-01-01T22:33:26.898Z,100873.78
2023-01-01T22:37:43.151Z,100873.38
2023-01-01T22:41:59.358Z,100876.38
2023-01-01T22:46:38.450Z,100860.91
2023-01-01T22:50:56.544Z,100861.69
2023-01-01T22:55:12.824Z,100862.91
2023-01-01T22:59:29.083Z,100853.81
2023-01-01T23:03:45.413Z,100858.09
2023-01-01T23:08:01.755Z,100857.72
2023-01-01T23:12:17.911Z,100842.56
2023-01-01T23:16:34.432Z,100848.19
2023-01-01T23:20:51.075Z,100844.47
2023-01-01T23:25:10.107Z,100844.41
2023-01-01T23:29:27.857Z,100838.47
2023-01-01T23:33:51.793Z,100847.63
2023-01-01T23:38:11.223Z,100835.41
2023-01-01T23:42:27.506Z,100835.19
2023-01-01T23:46:44.198Z,100831.41
2023-01-01T23:51:00.536Z,100824.34
2023-01-01T23:55:16.905Z,100822.19
2023-01-01T23:59:33.092Z,100826.41
